TimeGMT,TemperatureF,Dew PointF,Humidity,Sea Level PressureIn,VisibilityMPH,Wind Direction,Wind SpeedMPH,Gust SpeedMPH,PrecipitationIn,Events,Conditions,WindDirDegrees,DateUTC
12:50 AM,48.2,37.4,66,29.36,6.2,SSW,19.6,-,N/A,,Partly Cloudy,200,2012-11-04 00:50:00
1:50 AM,46.4,37.4,71,29.36,6.2,South,10.4,-,N/A,,Mostly Cloudy,180,2012-11-04 01:50:00
2:50 AM,46,42,83,29.33,12,SSE,13.8,,,,Scattered Clouds,150,2012-11-04 02:50:00
2:50 AM,46.4,42.8,87,29.33,6.2,SSE,13.8,-,N/A,,Mostly Cloudy,150,2012-11-04 02:50:00
3:50 AM,46.4,41.0,81,29.30,6.2,SE,9.2,-,N/A,,Overcast,130,2012-11-04 03:50:00
4:50 AM,44.6,41.0,87,29.27,6.2,East,9.2,-,N/A,,Mostly Cloudy,100,2012-11-04 04:50:00
5:50 AM,43,39,81,29.29,19,ESE,12.7,,,,Scattered Clouds,120,2012-11-04 05:50:00
5:50 AM,42.8,39.2,87,29.27,6.2,ESE,12.7,-,N/A,,Mostly Cloudy,120,2012-11-04 05:50:00
6:50 AM,44.6,41.0,87,29.27,6.2,SE,11.5,-,N/A,,Mostly Cloudy,140,2012-11-04 06:50:00
7:50 AM,42.8,41.0,93,29.27,6.2,SSE,11.5,-,N/A,,Mostly Cloudy,160,2012-11-04 07:50:00
8:50 AM,43,41,90,29.29,22,East,8.1,,,,Scattered Clouds,100,2012-11-04 08:50:00
8:50 AM,42.8,41.0,93,29.27,6.2,East,8.1,-,N/A,,Mostly Cloudy,100,2012-11-04 08:50:00
9:50 AM,44.6,42.8,93,29.27,6.2,ESE,10.4,-,N/A,,Unknown,110,2012-11-04 09:50:00
10:50 AM,44.6,42.8,93,29.27,6.2,SE,11.5,-,N/A,,Mostly Cloudy,130,2012-11-04 10:50:00
11:50 AM,44,42,89,29.28,4,East,8.1,,,,Mostly Cloudy,90,2012-11-04 11:50:00
11:50 AM,44.6,42.8,93,29.27,3.7,East,8.1,-,N/A,,Mostly Cloudy,90,2012-11-04 11:50:00
12:50 PM,44.6,42.8,93,29.24,6.2,East,13.8,-,N/A,,Mostly Cloudy,90,2012-11-04 12:50:00
1:50 PM,44.6,42.8,93,29.24,6.2,ESE,13.8,-,N/A,,Scattered Clouds,110,2012-11-04 13:50:00
2:50 PM,45,42,84,29.25,25,ESE,15.0,,,,Scattered Clouds,110,2012-11-04 14:50:00
2:50 PM,44.6,41.0,87,29.24,6.2,ESE,15.0,27.6,N/A,,Mostly Cloudy,110,2012-11-04 14:50:00
3:50 PM,44.6,41.0,87,29.24,1.2,ESE,17.3,-,N/A,,Mostly Cloudy,110,2012-11-04 15:50:00
4:50 PM,42.8,41.0,93,29.24,4.3,ESE,17.3,28.8,N/A,,Mostly Cloudy,110,2012-11-04 16:50:00
5:50 PM,43,42,94,29.25,2,ENE,5.8,,,,Partly Cloudy,60,2012-11-04 17:50:00
5:50 PM,42.8,42.8,100,29.24,1.7,ENE,5.8,-,N/A,,Mostly Cloudy,60,2012-11-04 17:50:00
6:50 PM,44.6,42.8,93,29.24,2.5,ESE,17.3,31.1,N/A,,Mostly Cloudy,120,2012-11-04 18:50:00
7:50 PM,44.6,42.8,93,29.27,3.1,ESE,12.7,-,N/A,,Mostly Cloudy,110,2012-11-04 19:50:00
8:50 PM,43,42,96,29.29,3,East,16.1,,,,Partly Cloudy,100,2012-11-04 20:50:00
8:50 PM,42.8,42.8,100,29.27,-9999.0,East,16.1,28.8,N/A,,Mostly Cloudy,100,2012-11-04 20:50:00
9:50 PM,42.8,42.8,100,29.33,6.2,East,13.8,-,N/A,,Mostly Cloudy,100,2012-11-04 21:50:00
10:50 PM,42.8,41.0,93,29.33,6.2,East,12.7,-,N/A,,Mostly Cloudy,80,2012-11-04 22:50:00
11:50 PM,42,40,91,29.38,13,ENE,12.7,,,,Scattered Clouds,70,2012-11-04 23:50:00
11:50 PM,42.8,41.0,93,29.36,6.2,ENE,12.7,-,N/A,,Mostly Cloudy,70,2012-11-04 23:50:00